HAZ8205 ZUUU-WSSS
Flight info
| Callsign | HAZ8205 |
|---|---|
| Flight time | N/A |
| Altitude | 35100 |
| Route | LUVEN9W LUVEN G212 BOPTU/K0909S1100 G212 SGM A581 BIDRU/K0906S1070 A581 SAGAG/N0488F360 B218 VTN/N0488F370 R470 ROT R345 REP W1 TIA/N0486F360 M755 KISAN/K0900F360 M755 BITOD/K0898F370 M753 IPRIX/N0485F370 Q802 ELALO ELALO1B |
| Aircraft | B77W/H-SDE1E2E3FGHIJ2J3J4J5M1RWXY/LB1D1 |
Departure
| Time | 2026-05-07 10:04 |
|---|---|
| Airport | Chengdu Shuangliu International Airport (ZUUU) |
Arrival
| Time | N/A |
|---|---|
| Airport | Singapore Changi Airport (WSSS) |
| Time | Latitude | Longitude | Altitude | Speed | Heading |
|---|---|---|---|---|---|
| 2026-05-07 09:47 | 30.56606 | 103.94662 | 1644 ft | 0 kts | 22° |
| 2026-05-07 09:56 | 30.56594 | 103.94656 | 1644 ft | 2 kts | 20° |
| 2026-05-07 09:56 | 30.56580 | 103.94649 | 1644 ft | 2 kts | 21° |
| 2026-05-07 09:56 | 30.56566 | 103.94643 | 1644 ft | 2 kts | 22° |
| 2026-05-07 09:56 | 30.56556 | 103.94639 | 1644 ft | 1 kts | 22° |
| 2026-05-07 09:57 | 30.56542 | 103.94635 | 1644 ft | 2 kts | 348° |
| 2026-05-07 09:57 | 30.56529 | 103.94642 | 1644 ft | 2 kts | 314° |
| 2026-05-07 09:57 | 30.56523 | 103.94652 | 1644 ft | 0 kts | 291° |
| 2026-05-07 09:57 | 30.56521 | 103.94657 | 1644 ft | 0 kts | 291° |
| 2026-05-07 09:59 | 30.56525 | 103.94644 | 1644 ft | 5 kts | 285° |
| 2026-05-07 09:59 | 30.56543 | 103.94573 | 1644 ft | 12 kts | 290° |
| 2026-05-07 10:00 | 30.56574 | 103.94471 | 1644 ft | 12 kts | 276° |
| 2026-05-07 10:00 | 30.56528 | 103.94406 | 1644 ft | 11 kts | 197° |
| 2026-05-07 10:00 | 30.56451 | 103.94375 | 1644 ft | 12 kts | 200° |
| 2026-05-07 10:00 | 30.56362 | 103.94334 | 1644 ft | 13 kts | 202° |
| 2026-05-07 10:01 | 30.56286 | 103.94287 | 1644 ft | 11 kts | 233° |
| 2026-05-07 10:01 | 30.56283 | 103.94202 | 1644 ft | 10 kts | 292° |
| 2026-05-07 10:01 | 30.56310 | 103.94128 | 1644 ft | 9 kts | 292° |
| 2026-05-07 10:01 | 30.56332 | 103.94065 | 1644 ft | 8 kts | 292° |
| 2026-05-07 10:02 | 30.56362 | 103.94025 | 1644 ft | 6 kts | 345° |
| 2026-05-07 10:02 | 30.56402 | 103.94028 | 1644 ft | 5 kts | 18° |
| 2026-05-07 10:02 | 30.56409 | 103.94031 | 1644 ft | 0 kts | 20° |
| 2026-05-07 10:02 | 30.56417 | 103.94035 | 1644 ft | 7 kts | 21° |
| 2026-05-07 10:03 | 30.56664 | 103.94151 | 1644 ft | 71 kts | 22° |
| 2026-05-07 10:03 | 30.57331 | 103.94460 | 1644 ft | 131 kts | 22° |
| 2026-05-07 10:03 | 30.58337 | 103.94930 | 1661 ft | 179 kts | 23° |
| 2026-05-07 10:03 | 30.59560 | 103.95489 | 2066 ft | 191 kts | 23° |
| 2026-05-07 10:04 | 30.60786 | 103.96056 | 2830 ft | 193 kts | 25° |
| 2026-05-07 10:04 | 30.62040 | 103.96656 | 3329 ft | 203 kts | 25° |
| 2026-05-07 10:04 | 30.63406 | 103.97297 | 3698 ft | 220 kts | 24° |
| 2026-05-07 10:04 | 30.64887 | 103.97987 | 4089 ft | 239 kts | 24° |
| 2026-05-07 10:05 | 30.66486 | 103.98731 | 4566 ft | 255 kts | 24° |
| 2026-05-07 10:05 | 30.68160 | 103.99529 | 5264 ft | 261 kts | 29° |
| 2026-05-07 10:05 | 30.69138 | 104.00294 | 5744 ft | 262 kts | 45° |
| 2026-05-07 10:05 | 30.70488 | 104.02625 | 6744 ft | 264 kts | 63° |
| 2026-05-07 10:06 | 30.71332 | 104.04522 | 7480 ft | 268 kts | 63° |
| 2026-05-07 10:06 | 30.72189 | 104.06464 | 8185 ft | 272 kts | 63° |
| 2026-05-07 10:06 | 30.73041 | 104.08395 | 8940 ft | 273 kts | 63° |
| 2026-05-07 10:06 | 30.73917 | 104.10377 | 9633 ft | 277 kts | 63° |